createdAt,value
2019-05-21T00:01:26.075Z,12.1
2019-05-21T00:11:25.767Z,14.4
2019-05-21T00:21:27.815Z,16.1
2019-05-21T00:31:26.417Z,18.3
2019-05-21T00:41:28.755Z,14.4
2019-05-21T00:51:25.579Z,14.9
2019-05-21T01:01:27.585Z,13.5
2019-05-21T01:11:27.449Z,13.9
2019-05-21T01:21:26.238Z,16.6
2019-05-21T01:31:26.628Z,13.7
2019-05-21T01:41:26.835Z,13.1
2019-05-21T01:51:25.481Z,16.4
2019-05-21T02:01:27.897Z,17.4
2019-05-21T02:11:25.859Z,17.5
2019-05-21T02:21:29.141Z,16.2
2019-05-21T02:31:26.869Z,16.8
2019-05-21T02:41:27.209Z,14.5
2019-05-21T02:51:26.226Z,18.0
2019-05-21T03:01:26.853Z,16.4
2019-05-21T03:11:26.030Z,17.3
2019-05-21T03:21:27.285Z,16.2
2019-05-21T03:31:27.202Z,14.5
2019-05-21T03:41:25.863Z,18.1
2019-05-21T03:51:27.557Z,14.0
2019-05-21T04:01:27.490Z,16.8
2019-05-21T04:11:28.209Z,15.8
2019-05-21T04:21:26.145Z,14.8
2019-05-21T04:31:27.232Z,14.5
2019-05-21T04:41:27.974Z,16.0
2019-05-21T04:51:27.818Z,15.7
2019-05-21T05:01:27.086Z,9.6
2019-05-21T05:11:26.936Z,15.4
2019-05-21T05:21:26.818Z,20.4
2019-05-21T05:31:28.605Z,13.7
2019-05-21T05:41:27.386Z,13.0
2019-05-21T05:51:27.127Z,14.5
2019-05-21T06:01:27.212Z,18.1
2019-05-21T06:11:27.388Z,14.6
2019-05-21T06:21:28.246Z,15.0
2019-05-21T06:31:27.038Z,20.1
2019-05-21T06:41:28.258Z,10.9
2019-05-21T06:51:26.145Z,12.1
2019-05-21T07:01:29.955Z,14.7
2019-05-21T07:11:26.610Z,11.4
2019-05-21T07:21:27.454Z,12.9
2019-05-21T07:31:27.058Z,13.6
2019-05-21T07:41:26.318Z,12.5
2019-05-21T07:51:26.288Z,11.7
2019-05-21T08:01:27.179Z,11.3
2019-05-21T08:11:27.121Z,7.2
2019-05-21T08:21:32.063Z,15.3
2019-05-21T08:31:27.006Z,11.6
2019-05-21T08:41:31.536Z,12.2
2019-05-21T08:51:27.209Z,10.6
2019-05-21T09:01:26.448Z,8.7
2019-05-21T09:11:27.037Z,11.1
2019-05-21T09:21:26.756Z,6.7
2019-05-21T09:31:26.955Z,5.6
2019-05-21T09:41:26.017Z,5.9
2019-05-21T09:51:28.764Z,9.7
2019-05-21T10:01:25.556Z,3.7
2019-05-21T10:11:26.865Z,5.4
2019-05-21T10:21:27.104Z,5.4
2019-05-21T10:31:26.451Z,11.5
2019-05-21T10:41:28.233Z,8.9
2019-05-21T10:51:25.723Z,8.8
2019-05-21T11:01:28.175Z,7.1
2019-05-21T11:11:25.975Z,9.6
2019-05-21T11:21:28.942Z,9.1
2019-05-21T11:31:26.967Z,5.6
2019-05-21T11:41:25.500Z,5.4
2019-05-21T11:51:27.983Z,10.7
2019-05-21T12:01:29.278Z,5.9
2019-05-21T12:11:28.841Z,9.8
2019-05-21T12:21:28.676Z,5.4
2019-05-21T12:31:26.449Z,7.7
2019-05-21T12:41:28.583Z,8.4
2019-05-21T12:51:27.841Z,10.3
2019-05-21T13:01:26.606Z,9.7
2019-05-21T13:11:28.917Z,11.0
2019-05-21T13:21:28.167Z,12.1
2019-05-21T13:31:26.297Z,14.0
2019-05-21T13:41:27.744Z,11.7
2019-05-21T13:51:28.377Z,14.5
2019-05-21T14:01:41.780Z,15.9
2019-05-21T14:11:28.213Z,14.1
2019-05-21T14:21:26.785Z,15.9
2019-05-21T14:31:31.883Z,13.8
2019-05-21T14:41:26.041Z,13.5
2019-05-21T14:51:27.047Z,10.9
2019-05-21T15:01:28.592Z,11.3
2019-05-21T15:11:27.404Z,13.2
2019-05-21T15:21:27.176Z,13.9
2019-05-21T15:31:27.736Z,15.8
2019-05-21T15:41:28.188Z,12.2
2019-05-21T15:51:27.065Z,10.0
2019-05-21T16:01:26.940Z,15.8
2019-05-21T16:11:29.555Z,12.7
2019-05-21T16:21:25.394Z,11.3
2019-05-21T16:31:27.804Z,9.2
2019-05-21T16:41:27.061Z,7.5
2019-05-21T16:51:28.539Z,13.1
2019-05-21T17:01:27.902Z,10.2
2019-05-21T17:11:26.179Z,6.3
2019-05-21T17:21:27.241Z,14.3
2019-05-21T17:31:27.376Z,7.5
2019-05-21T17:41:27.067Z,9.0
2019-05-21T17:51:27.205Z,8.4
2019-05-21T18:01:27.406Z,7.8
2019-05-21T18:11:28.209Z,9.4
2019-05-21T18:21:27.810Z,9.4
2019-05-21T18:31:27.051Z,11.8
2019-05-21T18:41:32.355Z,9.4
2019-05-21T18:51:27.837Z,11.5
2019-05-21T19:01:27.070Z,8.8
2019-05-21T19:11:27.498Z,10.7
2019-05-21T19:21:26.374Z,8.3
2019-05-21T19:31:26.115Z,7.9
2019-05-21T19:41:26.159Z,8.1
2019-05-21T19:51:27.466Z,5.5
2019-05-21T20:01:28.090Z,5.7
2019-05-21T20:11:32.941Z,4.4
2019-05-21T20:21:27.384Z,5.9
2019-05-21T20:31:26.943Z,7.3
2019-05-21T20:41:27.371Z,7.4
2019-05-21T20:51:27.328Z,7.3
2019-05-21T21:01:27.037Z,6.4
2019-05-21T21:11:28.861Z,8.1
2019-05-21T21:21:26.964Z,6.2
2019-05-21T21:31:27.567Z,4.2
2019-05-21T21:41:28.667Z,6.2
2019-05-21T21:51:26.536Z,4.9
2019-05-21T22:01:29.240Z,3.5
2019-05-21T22:11:27.995Z,3.7
2019-05-21T22:21:28.240Z,4.1
2019-05-21T22:31:27.392Z,4.8
2019-05-21T22:41:27.374Z,4.1
2019-05-21T22:51:26.647Z,2.9
2019-05-21T23:01:27.350Z,4.9
2019-05-21T23:11:26.895Z,4.1
2019-05-21T23:21:26.662Z,3.6
2019-05-21T23:31:27.268Z,4.2
2019-05-21T23:41:27.363Z,2.7
2019-05-21T23:51:27.531Z,3.4
